createdAt,value
2023-04-09T00:01:57.516Z,9.03
2023-04-09T00:04:24.135Z,8.80
2023-04-09T00:06:50.710Z,8.79
2023-04-09T00:09:17.204Z,8.71
2023-04-09T00:11:43.701Z,8.75
2023-04-09T00:14:10.145Z,8.66
2023-04-09T00:16:36.908Z,8.54
2023-04-09T00:19:03.441Z,8.64
2023-04-09T00:21:29.970Z,8.59
2023-04-09T00:23:56.436Z,8.55
2023-04-09T00:26:22.920Z,8.42
2023-04-09T00:28:49.814Z,8.56
2023-04-09T00:31:16.844Z,8.51
2023-04-09T00:33:44.090Z,8.43
2023-04-09T00:36:10.682Z,8.42
2023-04-09T00:38:37.233Z,8.31
2023-04-09T00:41:03.817Z,8.23
2023-04-09T00:43:30.236Z,8.19
2023-04-09T00:45:58.277Z,8.26
2023-04-09T00:48:25.238Z,8.22
2023-04-09T00:50:51.764Z,8.15
2023-04-09T00:53:18.595Z,7.99
2023-04-09T00:55:45.950Z,8.14
2023-04-09T00:58:12.570Z,8.18
2023-04-09T01:00:39.100Z,8.15
2023-04-09T01:03:07.386Z,8.06
2023-04-09T01:06:02.924Z,8.09
2023-04-09T01:09:06.183Z,8.13
2023-04-09T01:11:42.082Z,8.18
2023-04-09T01:14:32.710Z,8.06
2023-04-09T01:17:05.567Z,8.03
2023-04-09T01:19:43.989Z,8.07
2023-04-09T01:22:32.734Z,7.98
2023-04-09T01:25:37.523Z,8.01
2023-04-09T01:28:21.031Z,7.94
2023-04-09T01:30:57.544Z,7.81
2023-04-09T01:33:25.589Z,7.64
2023-04-09T01:35:53.978Z,7.73
2023-04-09T01:38:23.046Z,7.68
2023-04-09T01:40:50.800Z,7.70
2023-04-09T01:43:18.925Z,7.62
2023-04-09T01:45:45.786Z,7.64
2023-04-09T01:48:16.626Z,7.77
2023-04-09T01:50:43.857Z,7.78
2023-04-09T01:53:11.090Z,7.78
2023-04-09T01:55:37.670Z,7.72
2023-04-09T01:58:04.232Z,7.65
2023-04-09T02:00:42.657Z,7.69
2023-04-09T02:03:14.949Z,7.66
2023-04-09T02:06:03.981Z,7.55
2023-04-09T02:08:33.054Z,7.55
2023-04-09T02:11:04.093Z,7.46
2023-04-09T02:13:32.394Z,7.53
2023-04-09T02:16:00.063Z,7.51
2023-04-09T02:18:28.726Z,7.46
2023-04-09T02:20:56.779Z,7.46
2023-04-09T02:23:23.603Z,7.40
2023-04-09T02:25:51.148Z,7.34
2023-04-09T02:28:17.583Z,7.31
2023-04-09T02:30:44.390Z,7.25
2023-04-09T02:33:11.220Z,7.11
2023-04-09T02:35:37.845Z,6.91
2023-04-09T02:38:04.515Z,7.15
2023-04-09T02:40:31.261Z,7.07
2023-04-09T02:42:58.288Z,7.11
2023-04-09T02:45:24.911Z,7.05
2023-04-09T02:47:51.437Z,7.01
2023-04-09T02:50:18.013Z,6.97
2023-04-09T02:52:46.596Z,6.73
2023-04-09T02:55:14.042Z,6.81
2023-04-09T02:57:41.002Z,6.78
2023-04-09T03:00:08.333Z,6.72
2023-04-09T03:02:35.286Z,6.62
2023-04-09T03:05:02.325Z,6.60
2023-04-09T03:07:28.776Z,6.73
2023-04-09T03:09:55.221Z,6.69
2023-04-09T03:12:21.670Z,6.59
2023-04-09T03:14:48.135Z,6.54
2023-04-09T03:17:14.576Z,6.45
2023-04-09T03:19:41.067Z,6.45
2023-04-09T03:22:07.738Z,6.35
2023-04-09T03:24:34.242Z,6.31
2023-04-09T03:27:00.692Z,6.31
2023-04-09T03:29:27.194Z,6.28
2023-04-09T03:31:53.736Z,6.30
2023-04-09T03:34:20.287Z,6.46
2023-04-09T03:36:46.816Z,6.34
2023-04-09T03:39:13.316Z,6.39
2023-04-09T03:41:39.800Z,6.53
2023-04-09T03:44:06.295Z,6.42
2023-04-09T03:46:32.865Z,6.52
2023-04-09T03:48:59.310Z,6.39
2023-04-09T03:51:27.004Z,6.34
2023-04-09T03:53:53.474Z,6.20
2023-04-09T03:56:19.920Z,6.16
2023-04-09T03:58:48.482Z,6.14
2023-04-09T04:01:15.595Z,6.07
2023-04-09T04:03:42.174Z,6.11
2023-04-09T04:06:08.815Z,6.06
2023-04-09T04:08:35.301Z,5.89
2023-04-09T04:11:05.237Z,5.85
2023-04-09T04:13:32.146Z,5.88
2023-04-09T04:15:58.801Z,5.79
2023-04-09T04:18:25.338Z,5.99
2023-04-09T04:20:51.823Z,5.96
2023-04-09T04:23:18.331Z,5.84
2023-04-09T04:25:44.957Z,5.73
2023-04-09T04:28:11.425Z,5.52
2023-04-09T04:30:37.907Z,5.55
2023-04-09T04:33:04.430Z,5.53
2023-04-09T04:35:31.038Z,5.46
2023-04-09T04:37:57.634Z,5.57
2023-04-09T04:40:24.174Z,5.49
2023-04-09T04:42:50.666Z,5.58
2023-04-09T04:45:17.224Z,5.54
2023-04-09T04:47:43.798Z,5.46
2023-04-09T04:50:10.613Z,5.46
2023-04-09T04:52:37.250Z,5.37
2023-04-09T04:55:03.867Z,5.36
2023-04-09T04:57:30.600Z,5.52
2023-04-09T04:59:57.115Z,5.63
2023-04-09T05:02:23.669Z,5.58
2023-04-09T05:04:50.184Z,5.61
2023-04-09T05:07:16.730Z,5.66
2023-04-09T05:09:44.392Z,5.51
2023-04-09T05:12:11.137Z,5.33
2023-04-09T05:14:37.981Z,5.38
2023-04-09T05:17:04.985Z,5.40
2023-04-09T05:19:31.547Z,5.51
2023-04-09T05:21:58.037Z,5.65
2023-04-09T05:24:24.518Z,5.59
2023-04-09T05:26:51.184Z,5.55
2023-04-09T05:29:17.685Z,5.65
2023-04-09T05:31:44.188Z,5.59
2023-04-09T05:34:10.634Z,5.62
2023-04-09T05:36:37.101Z,5.83
2023-04-09T05:39:03.610Z,5.84
2023-04-09T05:41:30.304Z,5.73
2023-04-09T05:43:57.880Z,5.98
2023-04-09T05:46:26.035Z,6.20
2023-04-09T05:48:52.910Z,6.35
2023-04-09T05:51:19.600Z,6.39
2023-04-09T05:53:46.035Z,6.54
2023-04-09T05:56:16.078Z,6.83
2023-04-09T05:58:42.649Z,7.14
2023-04-09T06:01:10.175Z,7.50
2023-04-09T06:03:36.921Z,7.69
2023-04-09T06:06:03.674Z,7.96
2023-04-09T06:08:30.229Z,8.21
2023-04-09T06:10:56.697Z,8.43
2023-04-09T06:13:23.191Z,8.40
2023-04-09T06:15:49.877Z,8.63
2023-04-09T06:18:16.364Z,8.67
2023-04-09T06:20:42.886Z,8.61
2023-04-09T06:23:09.383Z,8.13
2023-04-09T06:25:36.623Z,8.10
2023-04-09T06:28:03.365Z,8.04
2023-04-09T06:30:31.801Z,8.10
2023-04-09T06:32:58.315Z,8.04
2023-04-09T06:35:24.745Z,8.35
2023-04-09T06:37:51.301Z,8.36
2023-04-09T06:40:18.792Z,8.72
2023-04-09T06:42:46.736Z,9.53
2023-04-09T06:45:13.239Z,9.98
2023-04-09T06:47:39.825Z,10.38
2023-04-09T06:50:06.969Z,10.79
2023-04-09T06:52:33.501Z,10.52
2023-04-09T06:55:00.003Z,10.83
2023-04-09T06:57:27.237Z,10.63
2023-04-09T06:59:53.735Z,10.43
2023-04-09T07:02:20.518Z,10.91
2023-04-09T07:04:47.853Z,10.73
2023-04-09T07:07:14.584Z,11.88
2023-04-09T07:09:41.145Z,12.42
2023-04-09T07:12:07.631Z,12.74
2023-04-09T07:14:34.167Z,12.74
2023-04-09T07:17:00.696Z,11.85
2023-04-09T07:19:27.225Z,11.97
2023-04-09T07:21:53.807Z,11.78
2023-04-09T07:24:20.328Z,11.46
2023-04-09T07:26:46.868Z,11.65
2023-04-09T07:29:13.395Z,10.94
2023-04-09T07:31:40.009Z,11.54
2023-04-09T07:34:07.041Z,12.16
2023-04-09T07:36:33.704Z,12.66
2023-04-09T07:39:00.166Z,13.00
2023-04-09T07:41:26.693Z,13.53
2023-04-09T07:43:53.256Z,13.88
2023-04-09T07:46:21.620Z,13.59
2023-04-09T07:48:50.181Z,14.00
2023-04-09T07:51:17.143Z,14.68
2023-04-09T07:53:43.623Z,14.69
2023-04-09T07:56:10.386Z,15.18
2023-04-09T07:58:38.159Z,15.23
2023-04-09T08:01:04.939Z,15.48
2023-04-09T08:03:31.826Z,16.07
2023-04-09T08:05:58.547Z,16.01
2023-04-09T08:08:25.009Z,16.67
2023-04-09T08:10:51.631Z,16.60
2023-04-09T08:13:18.100Z,17.19
2023-04-09T08:15:44.602Z,17.76
2023-04-09T08:18:11.127Z,18.03
2023-04-09T08:20:37.964Z,18.07
2023-04-09T08:23:04.568Z,18.02
2023-04-09T08:25:31.089Z,17.64
2023-04-09T08:27:58.124Z,17.90
2023-04-09T08:30:24.714Z,17.92
2023-04-09T08:32:51.342Z,18.00
2023-04-09T08:35:17.900Z,18.40
2023-04-09T08:37:44.478Z,18.71
2023-04-09T08:40:11.851Z,18.89
2023-04-09T08:42:46.098Z,18.08
2023-04-09T08:45:13.232Z,18.91
2023-04-09T08:47:42.217Z,18.90
2023-04-09T08:50:09.281Z,19.37
2023-04-09T08:52:37.070Z,19.22
2023-04-09T08:55:03.878Z,19.11
2023-04-09T08:57:30.589Z,19.61
2023-04-09T08:59:58.838Z,19.63
2023-04-09T09:02:25.559Z,18.85
2023-04-09T09:04:53.486Z,18.66
2023-04-09T09:07:19.979Z,19.27
2023-04-09T09:09:58.789Z,19.19
2023-04-09T09:12:39.529Z,19.52
2023-04-09T09:15:25.475Z,19.36
2023-04-09T09:17:57.415Z,19.03
2023-04-09T09:20:25.693Z,19.65
2023-04-09T09:22:55.626Z,20.19
2023-04-09T09:25:26.267Z,20.11
2023-04-09T09:27:54.323Z,20.39
2023-04-09T09:30:26.079Z,20.20
2023-04-09T09:32:53.900Z,20.23
2023-04-09T09:35:20.569Z,20.51
2023-04-09T09:37:47.097Z,21.22
2023-04-09T09:40:27.743Z,21.07
2023-04-09T09:42:58.088Z,20.75
2023-04-09T09:45:25.709Z,19.90
2023-04-09T09:47:53.799Z,20.60
2023-04-09T09:50:25.249Z,19.76
2023-04-09T09:52:58.827Z,20.51
2023-04-09T09:55:30.915Z,21.05
2023-04-09T09:58:01.943Z,21.59
2023-04-09T10:00:31.703Z,21.74
2023-04-09T10:03:07.983Z,22.13
2023-04-09T10:05:36.849Z,22.21
2023-04-09T10:08:04.496Z,21.70
2023-04-09T10:10:31.162Z,21.54
2023-04-09T10:12:58.620Z,21.89
2023-04-09T10:15:28.511Z,22.26
2023-04-09T10:17:56.130Z,22.66
2023-04-09T10:20:47.114Z,23.50
2023-04-09T10:23:24.332Z,23.74
2023-04-09T10:25:50.921Z,23.16
2023-04-09T10:28:18.613Z,23.14
2023-04-09T10:30:45.160Z,22.67
2023-04-09T10:33:14.079Z,22.16
2023-04-09T10:35:41.091Z,22.18
2023-04-09T10:38:08.993Z,22.12
2023-04-09T10:40:56.286Z,22.86
2023-04-09T10:43:23.684Z,22.21
2023-04-09T10:45:54.431Z,22.02
2023-04-09T10:48:22.013Z,22.89
2023-04-09T10:50:52.280Z,23.36
2023-04-09T10:53:26.044Z,23.03
2023-04-09T10:55:53.879Z,23.47
2023-04-09T10:58:20.697Z,23.47
2023-04-09T11:00:49.376Z,22.22
2023-04-09T11:03:24.400Z,22.62
2023-04-09T11:06:03.187Z,22.19
2023-04-09T11:08:33.916Z,23.34
2023-04-09T11:11:01.942Z,22.17
2023-04-09T11:13:30.356Z,21.94
2023-04-09T11:15:57.938Z,22.41
2023-04-09T11:18:26.777Z,23.20
2023-04-09T11:21:01.343Z,23.81
2023-04-09T11:23:28.619Z,23.35
2023-04-09T11:25:56.192Z,23.94
2023-04-09T11:28:23.925Z,24.17
2023-04-09T11:30:51.992Z,22.67
2023-04-09T11:33:20.424Z,22.72
2023-04-09T11:35:48.073Z,22.94
2023-04-09T11:38:14.712Z,23.16
2023-04-09T11:40:47.919Z,22.87
2023-04-09T11:43:18.502Z,23.14
2023-04-09T11:45:48.446Z,23.38
2023-04-09T11:48:18.199Z,23.72
2023-04-09T11:50:45.036Z,23.16
2023-04-09T11:53:18.327Z,23.63
2023-04-09T11:55:47.601Z,23.29
2023-04-09T11:58:14.750Z,23.17
2023-04-09T12:00:41.522Z,23.71
2023-04-09T12:03:08.388Z,24.40
2023-04-09T12:05:35.736Z,23.36
2023-04-09T12:08:05.053Z,24.15
2023-04-09T12:10:33.257Z,24.34
2023-04-09T12:13:06.056Z,23.97
2023-04-09T12:15:34.771Z,24.09
2023-04-09T12:18:01.765Z,23.89
2023-04-09T12:20:29.154Z,25.21
2023-04-09T12:22:56.482Z,25.10
2023-04-09T12:25:23.070Z,24.42
2023-04-09T12:27:49.725Z,24.86
2023-04-09T12:30:16.657Z,24.20
2023-04-09T12:32:44.865Z,24.36
2023-04-09T12:35:11.466Z,24.35
2023-04-09T12:37:38.210Z,23.52
2023-04-09T12:40:05.125Z,23.48
2023-04-09T12:42:31.589Z,23.21
2023-04-09T12:44:58.128Z,23.69
2023-04-09T12:47:24.760Z,23.22
2023-04-09T12:49:51.281Z,23.72
2023-04-09T12:52:18.627Z,23.54
2023-04-09T12:54:45.172Z,24.49
2023-04-09T12:57:11.657Z,24.23
2023-04-09T12:59:38.111Z,24.62
2023-04-09T13:02:04.726Z,24.57
2023-04-09T13:04:31.554Z,24.64
2023-04-09T13:06:58.191Z,24.92
2023-04-09T13:09:25.657Z,24.55
2023-04-09T13:11:52.208Z,24.40
2023-04-09T13:14:18.665Z,24.12
2023-04-09T13:16:45.221Z,24.54
2023-04-09T13:19:11.741Z,24.64
2023-04-09T13:21:38.298Z,24.23
2023-04-09T13:24:05.167Z,24.44
2023-04-09T13:26:31.994Z,24.40
2023-04-09T13:29:02.228Z,24.53
2023-04-09T13:31:28.716Z,24.40
2023-04-09T13:33:55.583Z,24.82
2023-04-09T13:36:22.110Z,23.95
2023-04-09T13:38:48.988Z,24.00
2023-04-09T13:41:15.764Z,23.97
2023-04-09T13:43:42.291Z,24.18
2023-04-09T13:46:08.785Z,24.45
2023-04-09T13:48:35.408Z,24.28
2023-04-09T13:51:02.022Z,23.76
2023-04-09T13:53:28.600Z,22.78
2023-04-09T13:55:55.417Z,23.37
2023-04-09T13:58:23.330Z,23.36
2023-04-09T14:00:49.833Z,23.10
2023-04-09T14:03:16.787Z,22.96
2023-04-09T14:05:43.481Z,23.19
2023-04-09T14:08:10.056Z,23.21
2023-04-09T14:10:36.643Z,23.31
2023-04-09T14:13:06.519Z,22.45
2023-04-09T14:15:34.890Z,22.75
2023-04-09T14:18:01.602Z,22.61
2023-04-09T14:20:28.564Z,22.35
2023-04-09T14:22:55.321Z,22.19
2023-04-09T14:25:21.843Z,21.86
2023-04-09T14:27:48.339Z,21.89
2023-04-09T14:30:14.852Z,21.71
2023-04-09T14:32:41.361Z,21.65
2023-04-09T14:35:08.287Z,21.30
2023-04-09T14:37:34.875Z,20.90
2023-04-09T14:40:01.469Z,20.90
2023-04-09T14:42:28.059Z,20.62
2023-04-09T14:44:55.208Z,20.69
2023-04-09T14:47:21.956Z,20.33
2023-04-09T14:49:48.536Z,19.47
2023-04-09T14:52:15.340Z,19.42
2023-04-09T14:54:42.905Z,19.37
2023-04-09T14:57:09.389Z,19.04
2023-04-09T14:59:36.428Z,19.08
2023-04-09T15:02:03.227Z,18.86
2023-04-09T15:04:30.026Z,18.89
2023-04-09T15:06:56.705Z,18.80
2023-04-09T15:09:23.269Z,18.59
2023-04-09T15:11:49.840Z,18.45
2023-04-09T15:14:17.016Z,18.42
2023-04-09T15:16:43.597Z,18.09
2023-04-09T15:19:10.210Z,17.84
2023-04-09T15:21:36.763Z,17.41
2023-04-09T15:24:03.721Z,17.44
2023-04-09T15:26:30.337Z,17.33
2023-04-09T15:29:07.797Z,17.18
2023-04-09T15:31:34.447Z,16.91
2023-04-09T15:34:01.050Z,16.92
2023-04-09T15:36:29.979Z,16.83
2023-04-09T15:38:56.617Z,16.63
2023-04-09T15:41:24.057Z,16.46
2023-04-09T15:43:51.753Z,16.26
2023-04-09T15:46:18.719Z,16.28
2023-04-09T15:48:45.353Z,16.14
2023-04-09T15:51:11.902Z,16.17
2023-04-09T15:53:39.094Z,16.09
2023-04-09T15:56:06.107Z,16.12
2023-04-09T15:58:32.695Z,16.00
2023-04-09T16:00:59.326Z,15.95
2023-04-09T16:03:26.220Z,15.75
2023-04-09T16:05:52.704Z,15.98
2023-04-09T16:08:19.226Z,15.94
2023-04-09T16:10:45.665Z,15.82
2023-04-09T16:13:12.178Z,15.81
2023-04-09T16:15:38.849Z,15.58
2023-04-09T16:18:06.240Z,15.48
2023-04-09T16:20:32.798Z,15.57
2023-04-09T16:22:59.295Z,15.50
2023-04-09T16:25:25.896Z,15.48
2023-04-09T16:27:52.400Z,15.40
2023-04-09T16:30:18.858Z,15.44
2023-04-09T16:32:45.331Z,15.34
2023-04-09T16:35:11.836Z,15.34
2023-04-09T16:37:38.795Z,15.38
2023-04-09T16:40:05.865Z,15.35
2023-04-09T16:42:33.121Z,15.34
2023-04-09T16:44:59.619Z,15.24
2023-04-09T16:47:26.060Z,15.14
2023-04-09T16:49:52.603Z,14.96
2023-04-09T16:52:19.110Z,14.91
2023-04-09T16:54:45.822Z,14.96
2023-04-09T16:57:12.695Z,15.01
2023-04-09T16:59:40.829Z,15.12
2023-04-09T17:02:07.743Z,15.04
2023-04-09T17:04:36.328Z,14.93
2023-04-09T17:07:03.036Z,14.88
2023-04-09T17:09:31.280Z,14.93
2023-04-09T17:11:58.401Z,15.00
2023-04-09T17:14:24.889Z,14.95
2023-04-09T17:16:53.716Z,14.95
2023-04-09T17:19:20.233Z,14.86
2023-04-09T17:21:46.728Z,14.82
2023-04-09T17:24:13.179Z,14.73
2023-04-09T17:26:39.665Z,14.75
2023-04-09T17:29:06.309Z,14.83
2023-04-09T17:31:32.776Z,14.59
2023-04-09T17:33:59.288Z,14.55
2023-04-09T17:36:26.277Z,14.54
2023-04-09T17:38:53.196Z,14.43
2023-04-09T17:41:19.864Z,14.37
2023-04-09T17:43:46.378Z,14.22
2023-04-09T17:46:12.983Z,14.26
2023-04-09T17:48:39.799Z,14.28
2023-04-09T17:51:06.917Z,14.19
2023-04-09T17:53:33.469Z,14.14
2023-04-09T17:56:02.954Z,14.13
2023-04-09T17:58:29.963Z,14.18
2023-04-09T18:00:56.670Z,14.15
2023-04-09T18:03:23.488Z,14.14
2023-04-09T18:05:50.291Z,13.99
2023-04-09T18:08:17.428Z,14.01
2023-04-09T18:10:43.974Z,14.03
2023-04-09T18:13:10.701Z,13.95
2023-04-09T18:15:37.360Z,13.94
2023-04-09T18:18:03.868Z,13.88
2023-04-09T18:20:30.509Z,13.91
2023-04-09T18:22:57.234Z,13.82
2023-04-09T18:25:24.027Z,13.69
2023-04-09T18:27:51.250Z,13.65
2023-04-09T18:30:17.910Z,13.61
2023-04-09T18:32:44.408Z,13.60
2023-04-09T18:35:11.084Z,13.55
2023-04-09T18:37:38.238Z,13.58
2023-04-09T18:40:06.216Z,13.52
2023-04-09T18:42:32.765Z,13.49
2023-04-09T18:44:59.194Z,13.47
2023-04-09T18:47:26.049Z,13.47
2023-04-09T18:49:52.638Z,13.30
2023-04-09T18:52:19.082Z,13.13
2023-04-09T18:54:45.567Z,13.02
2023-04-09T18:57:12.149Z,13.08
2023-04-09T18:59:40.018Z,12.96
2023-04-09T19:02:06.871Z,12.95
2023-04-09T19:04:39.577Z,12.90
2023-04-09T19:07:06.734Z,12.82
2023-04-09T19:09:33.574Z,12.76
2023-04-09T19:12:01.422Z,12.74
2023-04-09T19:14:27.917Z,12.70
2023-04-09T19:16:54.768Z,12.57
2023-04-09T19:19:21.729Z,12.58
2023-04-09T19:21:48.158Z,12.60
2023-04-09T19:24:14.633Z,12.51
2023-04-09T19:26:41.158Z,12.36
2023-04-09T19:29:08.140Z,12.52
2023-04-09T19:31:34.627Z,12.39
2023-04-09T19:34:01.121Z,12.38
2023-04-09T19:36:28.403Z,12.39
2023-04-09T19:38:55.124Z,12.42
2023-04-09T19:41:21.731Z,12.33
2023-04-09T19:43:48.304Z,12.35
2023-04-09T19:46:14.864Z,12.22
2023-04-09T19:48:41.307Z,12.22
2023-04-09T19:51:07.789Z,12.04
2023-04-09T19:53:36.280Z,12.15
2023-04-09T19:56:03.319Z,12.00
2023-04-09T19:58:32.016Z,11.87
2023-04-09T20:00:58.637Z,11.73
2023-04-09T20:03:25.435Z,11.80
2023-04-09T20:05:52.033Z,11.83
2023-04-09T20:08:18.532Z,11.71
2023-04-09T20:10:47.137Z,11.76
2023-04-09T20:13:13.795Z,11.71
2023-04-09T20:15:40.288Z,11.77
2023-04-09T20:18:07.247Z,11.69
2023-04-09T20:20:33.735Z,11.42
2023-04-09T20:23:00.857Z,11.19
2023-04-09T20:25:33.847Z,11.12
2023-04-09T20:28:01.891Z,11.04
2023-04-09T20:30:28.445Z,11.07
2023-04-09T20:32:54.980Z,11.07
2023-04-09T20:35:21.629Z,10.97
2023-04-09T20:37:49.433Z,10.57
2023-04-09T20:40:16.414Z,10.72
2023-04-09T20:42:44.072Z,10.70
2023-04-09T20:45:11.250Z,10.65
2023-04-09T20:47:37.851Z,10.91
2023-04-09T20:50:04.885Z,10.80
2023-04-09T20:52:31.523Z,10.71
2023-04-09T20:54:58.650Z,10.81
2023-04-09T20:57:25.122Z,10.69
2023-04-09T20:59:52.950Z,10.42
2023-04-09T21:02:20.185Z,10.35
2023-04-09T21:04:47.055Z,10.15
2023-04-09T21:07:14.652Z,10.31
2023-04-09T21:09:41.212Z,10.16
2023-04-09T21:12:07.809Z,10.02
2023-04-09T21:14:34.325Z,10.10
2023-04-09T21:17:01.041Z,9.90
2023-04-09T21:19:27.558Z,9.61
2023-04-09T21:21:54.314Z,9.62
2023-04-09T21:24:20.853Z,9.51
2023-04-09T21:26:50.820Z,9.67
2023-04-09T21:29:20.278Z,9.73
2023-04-09T21:31:47.804Z,9.68
2023-04-09T21:34:14.343Z,9.75
2023-04-09T21:36:41.353Z,9.89
2023-04-09T21:39:07.929Z,9.86
2023-04-09T21:41:34.830Z,9.75
2023-04-09T21:44:07.861Z,9.80
2023-04-09T21:46:36.959Z,9.83
2023-04-09T21:49:04.159Z,9.75
2023-04-09T21:51:31.415Z,9.60
2023-04-09T21:54:08.972Z,9.68
2023-04-09T21:56:36.107Z,9.57
2023-04-09T21:59:03.660Z,9.58
2023-04-09T22:01:34.486Z,9.58
2023-04-09T22:04:02.160Z,9.57
2023-04-09T22:06:29.356Z,9.53
2023-04-09T22:08:57.322Z,9.32
2023-04-09T22:11:28.995Z,9.30
2023-04-09T22:13:57.084Z,9.40
2023-04-09T22:16:24.438Z,9.22
2023-04-09T22:18:51.493Z,9.26
2023-04-09T22:21:18.303Z,9.33
2023-04-09T22:23:44.883Z,9.35
2023-04-09T22:26:11.371Z,9.42
2023-04-09T22:28:38.461Z,9.38
2023-04-09T22:31:05.873Z,9.31
2023-04-09T22:33:32.582Z,9.27
2023-04-09T22:35:59.589Z,9.25
2023-04-09T22:38:26.560Z,9.28
2023-04-09T22:40:53.153Z,9.13
2023-04-09T22:43:19.792Z,9.26
2023-04-09T22:45:51.941Z,9.09
2023-04-09T22:48:19.033Z,9.05
2023-04-09T22:50:45.956Z,8.98
2023-04-09T22:53:12.798Z,9.21
2023-04-09T22:55:39.215Z,8.94
2023-04-09T22:58:05.963Z,8.99
2023-04-09T23:00:32.535Z,8.92
2023-04-09T23:02:59.232Z,8.93
2023-04-09T23:05:25.850Z,8.75
2023-04-09T23:07:52.416Z,8.83
2023-04-09T23:10:19.279Z,8.88
2023-04-09T23:12:45.781Z,8.87
2023-04-09T23:15:12.303Z,8.85
2023-04-09T23:17:38.900Z,8.86
2023-04-09T23:20:07.996Z,9.05
2023-04-09T23:22:34.930Z,9.00
2023-04-09T23:25:01.436Z,8.96
2023-04-09T23:27:28.869Z,8.85
2023-04-09T23:29:56.642Z,8.91
2023-04-09T23:32:23.206Z,8.80
2023-04-09T23:34:50.641Z,8.81
2023-04-09T23:37:17.577Z,8.86
2023-04-09T23:39:44.093Z,8.80
2023-04-09T23:42:10.781Z,8.75
2023-04-09T23:44:37.283Z,8.71
2023-04-09T23:47:05.903Z,8.74
2023-04-09T23:49:32.554Z,8.88
2023-04-09T23:51:59.026Z,8.88
2023-04-09T23:54:25.512Z,8.75
2023-04-09T23:56:51.991Z,8.79
2023-04-09T23:59:18.478Z,8.78
